sensor_id;sensor_type;location;lat;lon;timestamp;P1;durP1;ratioP1;P2;durP2;ratioP2
3211;SDS011;1618;47.056;15.472;2024-03-23T00:54:38;30.60;;;28.50;;
3211;SDS011;1618;47.056;15.472;2024-03-23T00:57:05;31.30;;;29.20;;
3211;SDS011;1618;47.056;15.472;2024-03-23T00:59:32;31.23;;;29.13;;
3211;SDS011;1618;47.056;15.472;2024-03-23T01:01:59;31.90;;;29.80;;
3211;SDS011;1618;47.056;15.472;2024-03-23T01:04:27;31.67;;;29.57;;
3211;SDS011;1618;47.056;15.472;2024-03-23T01:06:56;29.50;;;27.50;;
3211;SDS011;1618;47.056;15.472;2024-03-23T01:09:24;29.60;;;27.60;;
3211;SDS011;1618;47.056;15.472;2024-03-23T01:11:54;29.63;;;27.63;;
3211;SDS011;1618;47.056;15.472;2024-03-23T01:14:22;29.83;;;27.83;;
3211;SDS011;1618;47.056;15.472;2024-03-23T01:16:49;29.60;;;27.60;;
3211;SDS011;1618;47.056;15.472;2024-03-23T01:19:16;29.60;;;27.60;;
3211;SDS011;1618;47.056;15.472;2024-03-23T01:21:44;29.87;;;27.87;;
3211;SDS011;1618;47.056;15.472;2024-03-23T01:24:13;30.90;;;28.90;;
3211;SDS011;1618;47.056;15.472;2024-03-23T01:26:42;30.17;;;28.27;;
3211;SDS011;1618;47.056;15.472;2024-03-23T01:29:10;30.60;;;28.60;;
3211;SDS011;1618;47.056;15.472;2024-03-23T01:31:38;30.13;;;28.23;;
3211;SDS011;1618;47.056;15.472;2024-03-23T01:34:07;30.17;;;28.20;;
3211;SDS011;1618;47.056;15.472;2024-03-23T01:36:34;30.60;;;28.60;;
3211;SDS011;1618;47.056;15.472;2024-03-23T01:39:02;31.07;;;29.07;;
3211;SDS011;1618;47.056;15.472;2024-03-23T01:41:30;31.43;;;29.43;;
3211;SDS011;1618;47.056;15.472;2024-03-23T01:43:58;30.13;;;28.23;;
3211;SDS011;1618;47.056;15.472;2024-03-23T01:46:30;29.90;;;28.00;;
3211;SDS011;1618;47.056;15.472;2024-03-23T01:49:00;30.47;;;28.57;;
3211;SDS011;1618;47.056;15.472;2024-03-23T01:51:26;30.27;;;28.37;;
3211;SDS011;1618;47.056;15.472;2024-03-23T01:53:56;30.80;;;28.90;;
3211;SDS011;1618;47.056;15.472;2024-03-23T01:56:22;30.70;;;28.70;;
3211;SDS011;1618;47.056;15.472;2024-03-23T01:58:54;31.63;;;29.63;;
3211;SDS011;1618;47.056;15.472;2024-03-23T02:01:22;30.13;;;28.23;;
3211;SDS011;1618;47.056;15.472;2024-03-23T02:03:50;30.03;;;28.13;;
3211;SDS011;1618;47.056;15.472;2024-03-23T02:06:22;29.80;;;27.90;;
3211;SDS011;1618;47.056;15.472;2024-03-23T02:08:52;30.40;;;28.50;;
3211;SDS011;1618;47.056;15.472;2024-03-23T02:11:18;30.80;;;28.90;;
3211;SDS011;1618;47.056;15.472;2024-03-23T02:13:47;30.93;;;29.03;;
3211;SDS011;1618;47.056;15.472;2024-03-23T02:16:14;31.13;;;29.23;;
3211;SDS011;1618;47.056;15.472;2024-03-23T02:18:42;31.80;;;29.90;;
3211;SDS011;1618;47.056;15.472;2024-03-23T02:21:12;30.23;;;28.37;;
3211;SDS011;1618;47.056;15.472;2024-03-23T02:23:41;30.93;;;29.03;;
3211;SDS011;1618;47.056;15.472;2024-03-23T02:26:08;31.13;;;29.23;;
3211;SDS011;1618;47.056;15.472;2024-03-23T02:28:36;31.23;;;29.33;;
3211;SDS011;1618;47.056;15.472;2024-03-23T02:31:03;30.90;;;29.00;;
3211;SDS011;1618;47.056;15.472;2024-03-23T02:33:30;30.40;;;28.50;;
3211;SDS011;1618;47.056;15.472;2024-03-23T02:35:58;30.67;;;28.77;;
3211;SDS011;1618;47.056;15.472;2024-03-23T02:38:27;30.53;;;28.63;;
3211;SDS011;1618;47.056;15.472;2024-03-23T02:41:00;31.17;;;29.27;;
3211;SDS011;1618;47.056;15.472;2024-03-23T02:43:28;30.30;;;28.50;;
3211;SDS011;1618;47.056;15.472;2024-03-23T02:45:56;30.27;;;28.47;;
3211;SDS011;1618;47.056;15.472;2024-03-23T02:48:23;31.13;;;29.23;;
3211;SDS011;1618;47.056;15.472;2024-03-23T02:50:50;30.70;;;28.80;;
3211;SDS011;1618;47.056;15.472;2024-03-23T02:53:19;32.30;;;30.30;;
3211;SDS011;1618;47.056;15.472;2024-03-23T02:55:47;31.90;;;29.90;;
3211;SDS011;1618;47.056;15.472;2024-03-23T02:58:17;32.43;;;30.43;;
3211;SDS011;1618;47.056;15.472;2024-03-23T03:00:44;31.70;;;29.80;;
3211;SDS011;1618;47.056;15.472;2024-03-23T03:03:13;32.57;;;30.57;;
3211;SDS011;1618;47.056;15.472;2024-03-23T03:05:40;30.90;;;29.00;;
3211;SDS011;1618;47.056;15.472;2024-03-23T03:08:07;32.90;;;31.00;;
3211;SDS011;1618;47.056;15.472;2024-03-23T03:10:35;32.50;;;30.60;;
3211;SDS011;1618;47.056;15.472;2024-03-23T03:13:03;33.50;;;31.60;;
3211;SDS011;1618;47.056;15.472;2024-03-23T03:15:32;32.77;;;30.87;;
3211;SDS011;1618;47.056;15.472;2024-03-23T03:18:01;30.67;;;28.77;;
3211;SDS011;1618;47.056;15.472;2024-03-23T03:20:28;31.23;;;29.33;;
3211;SDS011;1618;47.056;15.472;2024-03-23T03:22:58;31.63;;;29.73;;
3211;SDS011;1618;47.056;15.472;2024-03-23T03:25:26;31.20;;;29.30;;
3211;SDS011;1618;47.056;15.472;2024-03-23T03:27:54;31.60;;;29.70;;
3211;SDS011;1618;47.056;15.472;2024-03-23T03:30:21;32.07;;;30.17;;
3211;SDS011;1618;47.056;15.472;2024-03-23T03:32:53;30.47;;;28.67;;
3211;SDS011;1618;47.056;15.472;2024-03-23T03:35:20;30.00;;;28.20;;
3211;SDS011;1618;47.056;15.472;2024-03-23T03:37:48;30.40;;;28.60;;
3211;SDS011;1618;47.056;15.472;2024-03-23T03:40:15;29.63;;;27.93;;
3211;SDS011;1618;47.056;15.472;2024-03-23T03:42:42;30.43;;;28.63;;
3211;SDS011;1618;47.056;15.472;2024-03-23T03:45:11;29.80;;;28.00;;
3211;SDS011;1618;47.056;15.472;2024-03-23T03:47:43;29.90;;;28.10;;
3211;SDS011;1618;47.056;15.472;2024-03-23T03:50:12;30.77;;;28.97;;
3211;SDS011;1618;47.056;15.472;2024-03-23T03:52:40;30.30;;;28.50;;
3211;SDS011;1618;47.056;15.472;2024-03-23T03:55:12;30.03;;;28.33;;
3211;SDS011;1618;47.056;15.472;2024-03-23T03:57:40;29.20;;;27.50;;
3211;SDS011;1618;47.056;15.472;2024-03-23T04:00:08;29.53;;;27.83;;
3211;SDS011;1618;47.056;15.472;2024-03-23T04:02:36;28.30;;;26.70;;
3211;SDS011;1618;47.056;15.472;2024-03-23T04:05:04;28.87;;;27.27;;
3211;SDS011;1618;47.056;15.472;2024-03-23T04:07:35;28.80;;;27.20;;
3211;SDS011;1618;47.056;15.472;2024-03-23T04:10:03;28.53;;;26.93;;
3211;SDS011;1618;47.056;15.472;2024-03-23T04:12:33;28.63;;;27.03;;
3211;SDS011;1618;47.056;15.472;2024-03-23T04:15:01;28.93;;;27.30;;
3211;SDS011;1618;47.056;15.472;2024-03-23T04:17:31;28.53;;;26.93;;
3211;SDS011;1618;47.056;15.472;2024-03-23T04:19:59;29.30;;;27.60;;
3211;SDS011;1618;47.056;15.472;2024-03-23T04:22:28;29.53;;;27.83;;
3211;SDS011;1618;47.056;15.472;2024-03-23T04:24:56;29.23;;;27.63;;
3211;SDS011;1618;47.056;15.472;2024-03-23T04:27:25;28.90;;;27.30;;
3211;SDS011;1618;47.056;15.472;2024-03-23T04:29:51;30.40;;;28.80;;
3211;SDS011;1618;47.056;15.472;2024-03-23T04:32:20;30.20;;;28.60;;
3211;SDS011;1618;47.056;15.472;2024-03-23T04:34:47;30.00;;;28.40;;
3211;SDS011;1618;47.056;15.472;2024-03-23T04:37:15;30.80;;;29.20;;
3211;SDS011;1618;47.056;15.472;2024-03-23T04:39:43;30.30;;;28.60;;
3211;SDS011;1618;47.056;15.472;2024-03-23T04:42:14;31.50;;;29.60;;
3211;SDS011;1618;47.056;15.472;2024-03-23T04:44:42;31.97;;;30.07;;
3211;SDS011;1618;47.056;15.472;2024-03-23T04:47:11;32.77;;;30.77;;
3211;SDS011;1618;47.056;15.472;2024-03-23T04:49:39;32.50;;;30.50;;
3211;SDS011;1618;47.056;15.472;2024-03-23T04:52:07;32.07;;;30.17;;
3211;SDS011;1618;47.056;15.472;2024-03-23T04:54:34;31.80;;;29.90;;
3211;SDS011;1618;47.056;15.472;2024-03-23T04:57:03;31.70;;;29.80;;
3211;SDS011;1618;47.056;15.472;2024-03-23T04:59:35;30.97;;;29.17;;
3211;SDS011;1618;47.056;15.472;2024-03-23T05:02:02;31.10;;;29.30;;
3211;SDS011;1618;47.056;15.472;2024-03-23T05:04:30;31.30;;;29.50;;
3211;SDS011;1618;47.056;15.472;2024-03-23T05:06:57;31.60;;;29.70;;
3211;SDS011;1618;47.056;15.472;2024-03-23T05:09:24;29.97;;;28.17;;
3211;SDS011;1618;47.056;15.472;2024-03-23T05:11:56;30.10;;;28.40;;
3211;SDS011;1618;47.056;15.472;2024-03-23T05:14:24;29.83;;;28.13;;
3211;SDS011;1618;47.056;15.472;2024-03-23T05:16:53;29.83;;;28.13;;
3211;SDS011;1618;47.056;15.472;2024-03-23T05:19:21;29.90;;;28.20;;
3211;SDS011;1618;47.056;15.472;2024-03-23T05:21:50;28.60;;;27.00;;
3211;SDS011;1618;47.056;15.472;2024-03-23T05:24:22;29.30;;;27.60;;
3211;SDS011;1618;47.056;15.472;2024-03-23T05:26:50;29.43;;;27.73;;
3211;SDS011;1618;47.056;15.472;2024-03-23T05:29:18;28.53;;;26.93;;
3211;SDS011;1618;47.056;15.472;2024-03-23T05:31:49;28.73;;;27.03;;
3211;SDS011;1618;47.056;15.472;2024-03-23T05:34:17;28.17;;;26.50;;
3211;SDS011;1618;47.056;15.472;2024-03-23T05:36:47;28.90;;;27.20;;
3211;SDS011;1618;47.056;15.472;2024-03-23T05:39:14;29.30;;;27.50;;
3211;SDS011;1618;47.056;15.472;2024-03-23T05:41:43;29.80;;;28.00;;
3211;SDS011;1618;47.056;15.472;2024-03-23T05:44:10;30.70;;;28.80;;
3211;SDS011;1618;47.056;15.472;2024-03-23T05:46:37;30.60;;;28.70;;
3211;SDS011;1618;47.056;15.472;2024-03-23T05:49:03;30.30;;;28.30;;
3211;SDS011;1618;47.056;15.472;2024-03-23T05:51:32;30.73;;;28.73;;
3211;SDS011;1618;47.056;15.472;2024-03-23T05:54:00;30.73;;;28.73;;
3211;SDS011;1618;47.056;15.472;2024-03-23T05:56:29;30.80;;;28.90;;
3211;SDS011;1618;47.056;15.472;2024-03-23T05:58:56;30.63;;;28.73;;
3211;SDS011;1618;47.056;15.472;2024-03-23T06:01:29;29.47;;;27.67;;
3211;SDS011;1618;47.056;15.472;2024-03-23T06:03:58;30.90;;;29.00;;
3211;SDS011;1618;47.056;15.472;2024-03-23T06:06:27;30.70;;;28.80;;
3211;SDS011;1618;47.056;15.472;2024-03-23T06:08:56;30.87;;;28.97;;
3211;SDS011;1618;47.056;15.472;2024-03-23T06:11:25;31.03;;;29.13;;
3211;SDS011;1618;47.056;15.472;2024-03-23T06:13:52;30.80;;;28.90;;
3211;SDS011;1618;47.056;15.472;2024-03-23T06:16:21;30.30;;;28.40;;
3211;SDS011;1618;47.056;15.472;2024-03-23T06:18:49;30.47;;;28.57;;
3211;SDS011;1618;47.056;15.472;2024-03-23T06:21:18;29.80;;;28.00;;
3211;SDS011;1618;47.056;15.472;2024-03-23T06:23:45;29.60;;;27.80;;
3211;SDS011;1618;47.056;15.472;2024-03-23T06:26:17;30.00;;;28.20;;
3211;SDS011;1618;47.056;15.472;2024-03-23T06:28:44;29.33;;;27.53;;
3211;SDS011;1618;47.056;15.472;2024-03-23T06:31:12;29.47;;;27.67;;
3211;SDS011;1618;47.056;15.472;2024-03-23T06:33:40;29.00;;;27.20;;
3211;SDS011;1618;47.056;15.472;2024-03-23T06:36:09;29.00;;;27.20;;
3211;SDS011;1618;47.056;15.472;2024-03-23T06:38:36;29.60;;;27.70;;
3211;SDS011;1618;47.056;15.472;2024-03-23T06:41:04;30.10;;;28.10;;
3211;SDS011;1618;47.056;15.472;2024-03-23T06:43:33;29.83;;;27.83;;
3211;SDS011;1618;47.056;15.472;2024-03-23T06:46:01;29.40;;;27.50;;
3211;SDS011;1618;47.056;15.472;2024-03-23T06:48:28;28.60;;;26.70;;
3211;SDS011;1618;47.056;15.472;2024-03-23T06:50:57;28.80;;;26.90;;
3211;SDS011;1618;47.056;15.472;2024-03-23T06:53:23;29.17;;;27.17;;
3211;SDS011;1618;47.056;15.472;2024-03-23T06:55:52;29.20;;;27.20;;
3211;SDS011;1618;47.056;15.472;2024-03-23T06:58:20;28.93;;;26.93;;
3211;SDS011;1618;47.056;15.472;2024-03-23T07:00:48;28.60;;;26.70;;
3211;SDS011;1618;47.056;15.472;2024-03-23T07:03:15;28.63;;;26.73;;
3211;SDS011;1618;47.056;15.472;2024-03-23T07:05:42;28.80;;;26.90;;
3211;SDS011;1618;47.056;15.472;2024-03-23T07:08:08;30.00;;;28.10;;
3211;SDS011;1618;47.056;15.472;2024-03-23T07:10:38;29.10;;;27.20;;
3211;SDS011;1618;47.056;15.472;2024-03-23T07:13:05;30.10;;;28.20;;
3211;SDS011;1618;47.056;15.472;2024-03-23T07:15:32;29.73;;;27.83;;
3211;SDS011;1618;47.056;15.472;2024-03-23T07:18:01;29.30;;;27.40;;
3211;SDS011;1618;47.056;15.472;2024-03-23T07:20:28;29.30;;;27.40;;
3211;SDS011;1618;47.056;15.472;2024-03-23T07:22:57;29.30;;;27.30;;
3211;SDS011;1618;47.056;15.472;2024-03-23T07:25:25;30.10;;;28.20;;
3211;SDS011;1618;47.056;15.472;2024-03-23T07:27:54;29.57;;;27.67;;
3211;SDS011;1618;47.056;15.472;2024-03-23T07:30:21;29.60;;;27.60;;
3211;SDS011;1618;47.056;15.472;2024-03-23T07:32:48;29.70;;;27.70;;
3211;SDS011;1618;47.056;15.472;2024-03-23T07:35:17;29.60;;;27.60;;
3211;SDS011;1618;47.056;15.472;2024-03-23T07:37:43;29.33;;;27.33;;
3211;SDS011;1618;47.056;15.472;2024-03-23T07:40:12;29.10;;;27.10;;
3211;SDS011;1618;47.056;15.472;2024-03-23T07:42:43;29.40;;;27.40;;
3211;SDS011;1618;47.056;15.472;2024-03-23T07:45:11;30.00;;;28.00;;
3211;SDS011;1618;47.056;15.472;2024-03-23T07:47:38;29.10;;;27.10;;
3211;SDS011;1618;47.056;15.472;2024-03-23T07:50:06;29.10;;;27.10;;
3211;SDS011;1618;47.056;15.472;2024-03-23T07:52:36;29.33;;;27.33;;
3211;SDS011;1618;47.056;15.472;2024-03-23T07:55:04;28.70;;;26.80;;
3211;SDS011;1618;47.056;15.472;2024-03-23T07:57:30;30.20;;;28.20;;
3211;SDS011;1618;47.056;15.472;2024-03-23T07:59:58;30.90;;;28.90;;
3211;SDS011;1618;47.056;15.472;2024-03-23T08:02:24;31.00;;;29.00;;
3211;SDS011;1618;47.056;15.472;2024-03-23T08:04:52;30.60;;;28.60;;
3211;SDS011;1618;47.056;15.472;2024-03-23T08:07:20;30.03;;;28.13;;
3211;SDS011;1618;47.056;15.472;2024-03-23T08:09:53;29.57;;;27.57;;
3211;SDS011;1618;47.056;15.472;2024-03-23T08:12:20;29.67;;;27.67;;
3211;SDS011;1618;47.056;15.472;2024-03-23T08:14:51;30.87;;;28.77;;
3211;SDS011;1618;47.056;15.472;2024-03-23T08:17:19;29.97;;;27.87;;
3211;SDS011;1618;47.056;15.472;2024-03-23T08:19:46;30.00;;;27.90;;
3211;SDS011;1618;47.056;15.472;2024-03-23T08:22:12;29.47;;;27.37;;
3211;SDS011;1618;47.056;15.472;2024-03-23T08:24:41;29.80;;;27.70;;
3211;SDS011;1618;47.056;15.472;2024-03-23T08:27:09;29.43;;;27.33;;
3211;SDS011;1618;47.056;15.472;2024-03-23T08:29:37;29.47;;;27.40;;
3211;SDS011;1618;47.056;15.472;2024-03-23T08:32:03;30.57;;;28.47;;
3211;SDS011;1618;47.056;15.472;2024-03-23T08:34:30;30.00;;;27.90;;
3211;SDS011;1618;47.056;15.472;2024-03-23T08:36:57;30.20;;;28.00;;
3211;SDS011;1618;47.056;15.472;2024-03-23T08:39:26;29.23;;;27.13;;
3211;SDS011;1618;47.056;15.472;2024-03-23T08:41:54;28.97;;;26.87;;
3211;SDS011;1618;47.056;15.472;2024-03-23T08:44:24;29.40;;;27.40;;
3211;SDS011;1618;47.056;15.472;2024-03-23T08:46:50;28.77;;;26.87;;
3211;SDS011;1618;47.056;15.472;2024-03-23T08:49:18;29.63;;;27.63;;
3211;SDS011;1618;47.056;15.472;2024-03-23T08:51:46;30.93;;;28.73;;
3211;SDS011;1618;47.056;15.472;2024-03-23T08:54:14;29.90;;;27.80;;
3211;SDS011;1618;47.056;15.472;2024-03-23T08:56:42;29.90;;;27.80;;
3211;SDS011;1618;47.056;15.472;2024-03-23T08:59:09;29.60;;;27.50;;
3211;SDS011;1618;47.056;15.472;2024-03-23T09:01:37;29.60;;;27.60;;
3211;SDS011;1618;47.056;15.472;2024-03-23T09:04:06;29.30;;;27.20;;
3211;SDS011;1618;47.056;15.472;2024-03-23T09:06:33;30.87;;;28.67;;
3211;SDS011;1618;47.056;15.472;2024-03-23T09:09:01;31.50;;;29.30;;
3211;SDS011;1618;47.056;15.472;2024-03-23T09:11:28;31.97;;;29.77;;
3211;SDS011;1618;47.056;15.472;2024-03-23T09:13:55;30.00;;;27.90;;
3211;SDS011;1618;47.056;15.472;2024-03-23T09:16:24;30.70;;;28.50;;
3211;SDS011;1618;47.056;15.472;2024-03-23T09:18:53;29.83;;;27.73;;
3211;SDS011;1618;47.056;15.472;2024-03-23T09:21:19;29.63;;;27.43;;
3211;SDS011;1618;47.056;15.472;2024-03-23T09:23:48;30.40;;;28.20;;
3211;SDS011;1618;47.056;15.472;2024-03-23T09:26:15;30.97;;;28.77;;
3211;SDS011;1618;47.056;15.472;2024-03-23T09:28:43;32.00;;;29.70;;
3211;SDS011;1618;47.056;15.472;2024-03-23T09:31:11;30.70;;;28.50;;
3211;SDS011;1618;47.056;15.472;2024-03-23T09:33:41;30.77;;;28.47;;
3211;SDS011;1618;47.056;15.472;2024-03-23T09:36:10;31.40;;;29.00;;
3211;SDS011;1618;47.056;15.472;2024-03-23T09:38:38;31.73;;;29.33;;
3211;SDS011;1618;47.056;15.472;2024-03-23T09:41:06;31.07;;;28.57;;
3211;SDS011;1618;47.056;15.472;2024-03-23T09:43:37;32.20;;;29.70;;
3211;SDS011;1618;47.056;15.472;2024-03-23T09:46:03;29.20;;;26.80;;
3211;SDS011;1618;47.056;15.472;2024-03-23T09:48:31;31.93;;;29.43;;
3211;SDS011;1618;47.056;15.472;2024-03-23T09:50:59;32.57;;;29.97;;
3211;SDS011;1618;47.056;15.472;2024-03-23T09:53:27;32.20;;;29.70;;
3211;SDS011;1618;47.056;15.472;2024-03-23T09:55:55;32.13;;;29.63;;
3211;SDS011;1618;47.056;15.472;2024-03-23T09:58:23;31.80;;;29.30;;
3211;SDS011;1618;47.056;15.472;2024-03-23T10:00:50;30.63;;;28.13;;
3211;SDS011;1618;47.056;15.472;2024-03-23T10:03:18;30.40;;;27.90;;
3211;SDS011;1618;47.056;15.472;2024-03-23T10:05:45;30.20;;;27.70;;
3211;SDS011;1618;47.056;15.472;2024-03-23T10:08:18;29.83;;;27.13;;
3211;SDS011;1618;47.056;15.472;2024-03-23T10:10:48;30.70;;;28.10;;
3211;SDS011;1618;47.056;15.472;2024-03-23T10:13:25;30.80;;;28.13;;
3211;SDS011;1618;47.056;15.472;2024-03-23T10:15:55;28.93;;;26.33;;
3211;SDS011;1618;47.056;15.472;2024-03-23T10:18:24;29.10;;;26.40;;
3211;SDS011;1618;47.056;15.472;2024-03-23T10:20:52;29.20;;;26.50;;
3211;SDS011;1618;47.056;15.472;2024-03-23T10:23:29;31.03;;;28.23;;
3211;SDS011;1618;47.056;15.472;2024-03-23T10:25:57;31.10;;;28.50;;
3211;SDS011;1618;47.056;15.472;2024-03-23T10:28:50;31.43;;;28.83;;
3211;SDS011;1618;47.056;15.472;2024-03-23T10:31:19;31.80;;;29.20;;
3211;SDS011;1618;47.056;15.472;2024-03-23T10:33:47;31.90;;;29.30;;
3211;SDS011;1618;47.056;15.472;2024-03-23T10:36:14;32.60;;;29.90;;
3211;SDS011;1618;47.056;15.472;2024-03-23T10:38:43;31.77;;;29.17;;
3211;SDS011;1618;47.056;15.472;2024-03-23T10:41:11;34.20;;;31.50;;
3211;SDS011;1618;47.056;15.472;2024-03-23T10:43:39;33.87;;;31.13;;
3211;SDS011;1618;47.056;15.472;2024-03-23T10:46:06;33.60;;;30.90;;
3211;SDS011;1618;47.056;15.472;2024-03-23T10:48:34;33.57;;;30.67;;
3211;SDS011;1618;47.056;15.472;2024-03-23T10:51:01;34.33;;;31.63;;
3211;SDS011;1618;47.056;15.472;2024-03-23T10:53:30;33.37;;;30.67;;
3211;SDS011;1618;47.056;15.472;2024-03-23T10:55:59;32.83;;;30.13;;
3211;SDS011;1618;47.056;15.472;2024-03-23T10:58:30;33.17;;;30.47;;
3211;SDS011;1618;47.056;15.472;2024-03-23T11:00:57;33.40;;;30.60;;
3211;SDS011;1618;47.056;15.472;2024-03-23T11:03:31;33.90;;;31.20;;
3211;SDS011;1618;47.056;15.472;2024-03-23T11:05:58;33.80;;;31.10;;
3211;SDS011;1618;47.056;15.472;2024-03-23T11:08:29;34.17;;;31.47;;
3211;SDS011;1618;47.056;15.472;2024-03-23T11:13:47;33.37;;;30.57;;
3211;SDS011;1618;47.056;15.472;2024-03-23T11:16:15;34.23;;;31.43;;
3211;SDS011;1618;47.056;15.472;2024-03-23T11:18:43;33.70;;;30.90;;
3211;SDS011;1618;47.056;15.472;2024-03-23T11:21:10;34.97;;;32.17;;
3211;SDS011;1618;47.056;15.472;2024-03-23T11:23:37;32.63;;;30.10;;
3211;SDS011;1618;47.056;15.472;2024-03-23T11:26:09;34.20;;;31.50;;
3211;SDS011;1618;47.056;15.472;2024-03-23T11:28:37;34.63;;;32.03;;
3211;SDS011;1618;47.056;15.472;2024-03-23T11:31:10;35.20;;;32.30;;
3211;SDS011;1618;47.056;15.472;2024-03-23T11:33:38;35.20;;;32.40;;
3211;SDS011;1618;47.056;15.472;2024-03-23T11:36:05;36.03;;;33.13;;
3211;SDS011;1618;47.056;15.472;2024-03-23T11:38:36;34.97;;;32.07;;
3211;SDS011;1618;47.056;15.472;2024-03-23T11:41:02;34.43;;;31.60;;
3211;SDS011;1618;47.056;15.472;2024-03-23T11:43:30;33.80;;;30.97;;
3211;SDS011;1618;47.056;15.472;2024-03-23T11:45:57;34.80;;;31.90;;
3211;SDS011;1618;47.056;15.472;2024-03-23T11:48:29;35.03;;;32.13;;
3211;SDS011;1618;47.056;15.472;2024-03-23T11:50:56;34.40;;;31.50;;
3211;SDS011;1618;47.056;15.472;2024-03-23T11:53:24;34.63;;;31.73;;
3211;SDS011;1618;47.056;15.472;2024-03-23T11:55:52;33.80;;;31.00;;
3211;SDS011;1618;47.056;15.472;2024-03-23T11:58:21;35.30;;;32.40;;
3211;SDS011;1618;47.056;15.472;2024-03-23T12:00:51;36.23;;;33.23;;
3211;SDS011;1618;47.056;15.472;2024-03-23T12:03:19;34.40;;;31.50;;
3211;SDS011;1618;47.056;15.472;2024-03-23T12:05:49;35.63;;;32.73;;
3211;SDS011;1618;47.056;15.472;2024-03-23T12:08:20;37.03;;;33.97;;
3211;SDS011;1618;47.056;15.472;2024-03-23T12:10:47;35.50;;;32.60;;
3211;SDS011;1618;47.056;15.472;2024-03-23T12:13:17;36.47;;;33.57;;
3211;SDS011;1618;47.056;15.472;2024-03-23T12:15:44;37.17;;;34.07;;
3211;SDS011;1618;47.056;15.472;2024-03-23T12:18:11;35.50;;;32.60;;
3211;SDS011;1618;47.056;15.472;2024-03-23T12:20:39;35.43;;;32.53;;
3211;SDS011;1618;47.056;15.472;2024-03-23T12:23:08;36.07;;;33.07;;
3211;SDS011;1618;47.056;15.472;2024-03-23T12:25:37;35.00;;;32.10;;
3211;SDS011;1618;47.056;15.472;2024-03-23T12:28:06;35.63;;;32.70;;
3211;SDS011;1618;47.056;15.472;2024-03-23T12:30:35;37.67;;;34.57;;
3211;SDS011;1618;47.056;15.472;2024-03-23T12:33:03;34.47;;;31.57;;
3211;SDS011;1618;47.056;15.472;2024-03-23T12:35:29;35.23;;;32.33;;
3211;SDS011;1618;47.056;15.472;2024-03-23T12:37:57;35.37;;;32.47;;
3211;SDS011;1618;47.056;15.472;2024-03-23T12:40:25;36.33;;;33.27;;
3211;SDS011;1618;47.056;15.472;2024-03-23T12:42:55;37.40;;;34.20;;
3211;SDS011;1618;47.056;15.472;2024-03-23T12:45:21;36.17;;;33.07;;
3211;SDS011;1618;47.056;15.472;2024-03-23T12:47:49;34.30;;;31.10;;
3211;SDS011;1618;47.056;15.472;2024-03-23T12:50:19;32.80;;;29.70;;
3211;SDS011;1618;47.056;15.472;2024-03-23T12:52:48;32.53;;;29.43;;
3211;SDS011;1618;47.056;15.472;2024-03-23T12:55:14;33.17;;;29.90;;
3211;SDS011;1618;47.056;15.472;2024-03-23T12:57:44;33.07;;;29.87;;
3211;SDS011;1618;47.056;15.472;2024-03-23T13:00:11;32.07;;;28.97;;
3211;SDS011;1618;47.056;15.472;2024-03-23T13:02:39;33.50;;;30.23;;
3211;SDS011;1618;47.056;15.472;2024-03-23T13:05:11;33.10;;;30.00;;
3211;SDS011;1618;47.056;15.472;2024-03-23T13:07:44;32.43;;;29.33;;
3211;SDS011;1618;47.056;15.472;2024-03-23T13:10:12;33.10;;;30.00;;
3211;SDS011;1618;47.056;15.472;2024-03-23T13:12:40;33.70;;;30.50;;
3211;SDS011;1618;47.056;15.472;2024-03-23T13:15:09;33.40;;;30.30;;
3211;SDS011;1618;47.056;15.472;2024-03-23T13:17:38;34.40;;;31.27;;
3211;SDS011;1618;47.056;15.472;2024-03-23T13:20:04;32.43;;;29.40;;
3211;SDS011;1618;47.056;15.472;2024-03-23T13:22:36;32.47;;;29.37;;
3211;SDS011;1618;47.056;15.472;2024-03-23T13:25:03;33.70;;;30.60;;
3211;SDS011;1618;47.056;15.472;2024-03-23T13:27:31;33.17;;;30.07;;
3211;SDS011;1618;47.056;15.472;2024-03-23T13:29:57;33.70;;;30.60;;
3211;SDS011;1618;47.056;15.472;2024-03-23T13:32:26;33.63;;;30.43;;
3211;SDS011;1618;47.056;15.472;2024-03-23T13:34:52;33.20;;;30.10;;
3211;SDS011;1618;47.056;15.472;2024-03-23T13:37:20;33.07;;;29.97;;
3211;SDS011;1618;47.056;15.472;2024-03-23T13:39:48;32.23;;;29.13;;
3211;SDS011;1618;47.056;15.472;2024-03-23T13:42:17;32.70;;;29.70;;
3211;SDS011;1618;47.056;15.472;2024-03-23T13:44:44;32.63;;;29.53;;
3211;SDS011;1618;47.056;15.472;2024-03-23T13:47:12;32.97;;;29.97;;
3211;SDS011;1618;47.056;15.472;2024-03-23T13:49:40;32.73;;;29.83;;
3211;SDS011;1618;47.056;15.472;2024-03-23T13:52:10;31.90;;;29.00;;
3211;SDS011;1618;47.056;15.472;2024-03-23T13:54:37;31.80;;;28.80;;
3211;SDS011;1618;47.056;15.472;2024-03-23T13:57:33;32.90;;;29.80;;
3211;SDS011;1618;47.056;15.472;2024-03-23T14:00:29;33.63;;;30.63;;
3211;SDS011;1618;47.056;15.472;2024-03-23T14:03:25;33.70;;;30.60;;
3211;SDS011;1618;47.056;15.472;2024-03-23T14:06:21;34.10;;;31.00;;
3211;SDS011;1618;47.056;15.472;2024-03-23T16:01:19;36.03;;;33.33;;
3211;SDS011;1618;47.056;15.472;2024-03-23T16:03:49;37.50;;;34.70;;
3211;SDS011;1618;47.056;15.472;2024-03-23T16:06:15;37.00;;;34.30;;
3211;SDS011;1618;47.056;15.472;2024-03-23T16:08:45;35.10;;;32.40;;
3211;SDS011;1618;47.056;15.472;2024-03-23T16:11:12;35.23;;;32.53;;
3211;SDS011;1618;47.056;15.472;2024-03-23T16:13:41;34.50;;;31.80;;
3211;SDS011;1618;47.056;15.472;2024-03-23T16:16:08;33.10;;;30.50;;
3211;SDS011;1618;47.056;15.472;2024-03-23T16:18:38;33.03;;;30.43;;
3211;SDS011;1618;47.056;15.472;2024-03-23T16:21:06;33.77;;;31.17;;
3211;SDS011;1618;47.056;15.472;2024-03-23T16:23:35;35.83;;;33.13;;
3211;SDS011;1618;47.056;15.472;2024-03-23T16:26:04;35.00;;;32.30;;
3211;SDS011;1618;47.056;15.472;2024-03-23T16:28:35;31.00;;;28.60;;
3211;SDS011;1618;47.056;15.472;2024-03-23T16:31:03;33.33;;;30.80;;
3211;SDS011;1618;47.056;15.472;2024-03-23T16:33:33;32.90;;;30.40;;
3211;SDS011;1618;47.056;15.472;2024-03-23T16:36:03;33.40;;;30.80;;
3211;SDS011;1618;47.056;15.472;2024-03-23T16:38:32;33.67;;;31.07;;
3211;SDS011;1618;47.056;15.472;2024-03-23T16:41:00;32.80;;;30.30;;
3211;SDS011;1618;47.056;15.472;2024-03-23T16:43:31;32.10;;;29.63;;
3211;SDS011;1618;47.056;15.472;2024-03-23T16:45:59;33.77;;;31.37;;
3211;SDS011;1618;47.056;15.472;2024-03-23T16:48:29;33.83;;;31.53;;
3211;SDS011;1618;47.056;15.472;2024-03-23T16:50:57;34.10;;;31.80;;
3211;SDS011;1618;47.056;15.472;2024-03-23T16:53:27;39.20;;;36.80;;
3211;SDS011;1618;47.056;15.472;2024-03-23T16:55:55;40.30;;;37.80;;
3211;SDS011;1618;47.056;15.472;2024-03-23T16:58:23;42.13;;;39.73;;
3211;SDS011;1618;47.056;15.472;2024-03-23T17:00:50;42.60;;;40.00;;
3211;SDS011;1618;47.056;15.472;2024-03-23T17:03:21;39.73;;;37.13;;
3211;SDS011;1618;47.056;15.472;2024-03-23T17:05:48;39.17;;;36.67;;
3211;SDS011;1618;47.056;15.472;2024-03-23T17:08:16;39.77;;;37.27;;
3211;SDS011;1618;47.056;15.472;2024-03-23T17:10:44;38.90;;;36.50;;
3211;SDS011;1618;47.056;15.472;2024-03-23T17:13:13;32.80;;;30.80;;
3211;SDS011;1618;47.056;15.472;2024-03-23T17:15:42;32.83;;;30.83;;
3211;SDS011;1618;47.056;15.472;2024-03-23T17:18:11;32.53;;;30.53;;
3211;SDS011;1618;47.056;15.472;2024-03-23T17:20:37;29.60;;;27.90;;
3211;SDS011;1618;47.056;15.472;2024-03-23T17:23:09;32.13;;;30.33;;
3211;SDS011;1618;47.056;15.472;2024-03-23T17:25:36;31.17;;;29.37;;
3211;SDS011;1618;47.056;15.472;2024-03-23T17:28:05;29.00;;;27.30;;
3211;SDS011;1618;47.056;15.472;2024-03-23T17:30:32;27.87;;;26.37;;